sensor_id;sensor_type;location;lat;lon;timestamp;temperature;humidity
11005;DHT22;5555;59.622;16.556;2024-01-25T00:00:37;1.70;99.90
11005;DHT22;5555;59.622;16.556;2024-01-25T00:03:03;1.70;99.90
11005;DHT22;5555;59.622;16.556;2024-01-25T00:05:28;1.70;99.90
11005;DHT22;5555;59.622;16.556;2024-01-25T00:07:54;1.70;99.90
11005;DHT22;5555;59.622;16.556;2024-01-25T00:10:21;1.70;99.90
11005;DHT22;5555;59.622;16.556;2024-01-25T00:12:46;1.70;99.90
11005;DHT22;5555;59.622;16.556;2024-01-25T00:15:12;1.60;99.90
11005;DHT22;5555;59.622;16.556;2024-01-25T00:17:38;1.60;99.90
11005;DHT22;5555;59.622;16.556;2024-01-25T00:20:04;1.70;99.90
11005;DHT22;5555;59.622;16.556;2024-01-25T00:22:30;1.60;99.90
11005;DHT22;5555;59.622;16.556;2024-01-25T00:24:56;1.60;99.90
11005;DHT22;5555;59.622;16.556;2024-01-25T00:27:23;1.60;99.90
11005;DHT22;5555;59.622;16.556;2024-01-25T00:29:48;1.60;99.90
11005;DHT22;5555;59.622;16.556;2024-01-25T00:32:14;1.60;99.90
11005;DHT22;5555;59.622;16.556;2024-01-25T00:34:39;1.60;99.90
11005;DHT22;5555;59.622;16.556;2024-01-25T00:37:05;1.70;99.90
11005;DHT22;5555;59.622;16.556;2024-01-25T00:39:31;1.60;99.90
11005;DHT22;5555;59.622;16.556;2024-01-25T00:42:05;1.60;99.90
11005;DHT22;5555;59.622;16.556;2024-01-25T00:44:33;1.60;99.90
11005;DHT22;5555;59.622;16.556;2024-01-25T00:46:59;1.60;99.90
11005;DHT22;5555;59.622;16.556;2024-01-25T00:49:25;1.70;99.90
11005;DHT22;5555;59.622;16.556;2024-01-25T00:51:55;1.70;99.90
11005;DHT22;5555;59.622;16.556;2024-01-25T00:54:23;1.60;99.90
11005;DHT22;5555;59.622;16.556;2024-01-25T00:56:49;1.70;99.90
11005;DHT22;5555;59.622;16.556;2024-01-25T00:59:18;1.70;99.90
11005;DHT22;5555;59.622;16.556;2024-01-25T01:01:46;1.70;99.90
11005;DHT22;5555;59.622;16.556;2024-01-25T01:04:14;1.70;99.90
11005;DHT22;5555;59.622;16.556;2024-01-25T01:06:40;1.60;99.90
11005;DHT22;5555;59.622;16.556;2024-01-25T01:09:06;1.60;99.90
11005;DHT22;5555;59.622;16.556;2024-01-25T01:11:31;1.60;99.90
11005;DHT22;5555;59.622;16.556;2024-01-25T01:13:57;1.60;99.90
11005;DHT22;5555;59.622;16.556;2024-01-25T01:16:22;1.60;99.90
11005;DHT22;5555;59.622;16.556;2024-01-25T01:18:48;1.60;99.90
11005;DHT22;5555;59.622;16.556;2024-01-25T01:21:14;1.60;99.90
11005;DHT22;5555;59.622;16.556;2024-01-25T01:23:39;1.60;99.90
11005;DHT22;5555;59.622;16.556;2024-01-25T01:26:05;1.60;99.90
11005;DHT22;5555;59.622;16.556;2024-01-25T01:28:31;1.60;99.90
11005;DHT22;5555;59.622;16.556;2024-01-25T01:30:56;1.60;99.90
11005;DHT22;5555;59.622;16.556;2024-01-25T01:33:22;1.50;99.90
11005;DHT22;5555;59.622;16.556;2024-01-25T01:35:47;1.60;99.90
11005;DHT22;5555;59.622;16.556;2024-01-25T01:38:13;1.60;99.90
11005;DHT22;5555;59.622;16.556;2024-01-25T01:40:39;1.60;99.90
11005;DHT22;5555;59.622;16.556;2024-01-25T01:43:04;1.60;99.90
11005;DHT22;5555;59.622;16.556;2024-01-25T01:45:30;1.60;99.90
11005;DHT22;5555;59.622;16.556;2024-01-25T01:47:56;1.60;99.90
11005;DHT22;5555;59.622;16.556;2024-01-25T01:50:22;1.60;99.90
11005;DHT22;5555;59.622;16.556;2024-01-25T01:52:49;1.60;99.90
11005;DHT22;5555;59.622;16.556;2024-01-25T01:55:18;1.60;99.90
11005;DHT22;5555;59.622;16.556;2024-01-25T01:57:45;1.60;99.90
11005;DHT22;5555;59.622;16.556;2024-01-25T02:00:14;1.60;99.90
11005;DHT22;5555;59.622;16.556;2024-01-25T02:02:42;1.60;99.90
11005;DHT22;5555;59.622;16.556;2024-01-25T02:05:08;1.60;99.90
11005;DHT22;5555;59.622;16.556;2024-01-25T02:07:34;1.60;99.90
11005;DHT22;5555;59.622;16.556;2024-01-25T02:10:00;1.60;99.90
11005;DHT22;5555;59.622;16.556;2024-01-25T02:12:25;1.60;99.90
11005;DHT22;5555;59.622;16.556;2024-01-25T02:14:51;1.60;99.90
11005;DHT22;5555;59.622;16.556;2024-01-25T02:17:17;1.50;99.90
11005;DHT22;5555;59.622;16.556;2024-01-25T02:19:42;1.60;99.90
11005;DHT22;5555;59.622;16.556;2024-01-25T02:22:08;1.60;99.90
11005;DHT22;5555;59.622;16.556;2024-01-25T02:24:34;1.60;99.90
11005;DHT22;5555;59.622;16.556;2024-01-25T02:26:59;1.70;99.90
11005;DHT22;5555;59.622;16.556;2024-01-25T02:29:25;1.70;99.90
11005;DHT22;5555;59.622;16.556;2024-01-25T02:31:50;1.70;99.90
11005;DHT22;5555;59.622;16.556;2024-01-25T02:34:16;1.70;99.90
11005;DHT22;5555;59.622;16.556;2024-01-25T02:36:41;1.70;99.90
11005;DHT22;5555;59.622;16.556;2024-01-25T02:39:07;1.70;99.90
11005;DHT22;5555;59.622;16.556;2024-01-25T02:41:33;1.70;99.90
11005;DHT22;5555;59.622;16.556;2024-01-25T02:44:00;1.70;99.90
11005;DHT22;5555;59.622;16.556;2024-01-25T02:46:26;1.70;99.90
11005;DHT22;5555;59.622;16.556;2024-01-25T02:48:52;1.70;99.90
11005;DHT22;5555;59.622;16.556;2024-01-25T02:51:17;1.70;99.90
11005;DHT22;5555;59.622;16.556;2024-01-25T02:53:43;1.80;99.90
11005;DHT22;5555;59.622;16.556;2024-01-25T02:56:08;1.70;99.90
11005;DHT22;5555;59.622;16.556;2024-01-25T02:58:34;1.70;99.90
11005;DHT22;5555;59.622;16.556;2024-01-25T03:01:00;1.70;99.90
11005;DHT22;5555;59.622;16.556;2024-01-25T03:03:25;1.70;99.90
11005;DHT22;5555;59.622;16.556;2024-01-25T03:05:54;1.60;99.90
11005;DHT22;5555;59.622;16.556;2024-01-25T03:08:19;1.70;99.90
11005;DHT22;5555;59.622;16.556;2024-01-25T03:10:46;1.60;99.90
11005;DHT22;5555;59.622;16.556;2024-01-25T03:13:15;1.60;99.90
11005;DHT22;5555;59.622;16.556;2024-01-25T03:15:42;1.60;99.90
11005;DHT22;5555;59.622;16.556;2024-01-25T03:18:08;1.60;99.90
11005;DHT22;5555;59.622;16.556;2024-01-25T03:20:33;1.60;99.90
11005;DHT22;5555;59.622;16.556;2024-01-25T03:22:59;1.60;99.90
11005;DHT22;5555;59.622;16.556;2024-01-25T03:25:24;1.50;99.90
11005;DHT22;5555;59.622;16.556;2024-01-25T03:27:50;1.50;99.90
11005;DHT22;5555;59.622;16.556;2024-01-25T03:30:16;1.50;99.90
11005;DHT22;5555;59.622;16.556;2024-01-25T03:32:41;1.50;99.90
11005;DHT22;5555;59.622;16.556;2024-01-25T03:35:07;1.50;99.90
11005;DHT22;5555;59.622;16.556;2024-01-25T03:37:33;1.50;99.90
11005;DHT22;5555;59.622;16.556;2024-01-25T03:39:58;1.50;99.90
11005;DHT22;5555;59.622;16.556;2024-01-25T03:42:24;1.40;99.90
11005;DHT22;5555;59.622;16.556;2024-01-25T03:44:50;1.40;99.90
11005;DHT22;5555;59.622;16.556;2024-01-25T03:47:15;1.40;99.90
11005;DHT22;5555;59.622;16.556;2024-01-25T03:49:41;1.40;99.90
11005;DHT22;5555;59.622;16.556;2024-01-25T03:52:06;1.40;99.90
11005;DHT22;5555;59.622;16.556;2024-01-25T03:54:32;1.50;99.90
11005;DHT22;5555;59.622;16.556;2024-01-25T03:56:58;1.50;99.90
11005;DHT22;5555;59.622;16.556;2024-01-25T03:59:23;1.50;99.90
11005;DHT22;5555;59.622;16.556;2024-01-25T04:01:49;1.50;99.90
11005;DHT22;5555;59.622;16.556;2024-01-25T04:04:15;1.40;99.90
11005;DHT22;5555;59.622;16.556;2024-01-25T04:06:44;1.40;99.90
11005;DHT22;5555;59.622;16.556;2024-01-25T04:09:13;1.40;99.90
11005;DHT22;5555;59.622;16.556;2024-01-25T04:11:40;1.40;99.90
11005;DHT22;5555;59.622;16.556;2024-01-25T04:14:06;1.40;99.90
11005;DHT22;5555;59.622;16.556;2024-01-25T04:16:32;1.40;99.90
11005;DHT22;5555;59.622;16.556;2024-01-25T04:18:58;1.40;99.90
11005;DHT22;5555;59.622;16.556;2024-01-25T04:21:24;1.30;99.90
11005;DHT22;5555;59.622;16.556;2024-01-25T04:23:50;1.30;99.90
11005;DHT22;5555;59.622;16.556;2024-01-25T04:26:15;1.20;99.90
11005;DHT22;5555;59.622;16.556;2024-01-25T04:28:44;1.20;99.90
11005;DHT22;5555;59.622;16.556;2024-01-25T04:31:09;1.30;99.90
11005;DHT22;5555;59.622;16.556;2024-01-25T04:33:35;1.30;99.90
11005;DHT22;5555;59.622;16.556;2024-01-25T04:36:01;1.30;99.90
11005;DHT22;5555;59.622;16.556;2024-01-25T04:38:26;1.30;99.90
11005;DHT22;5555;59.622;16.556;2024-01-25T04:40:52;1.30;99.90
11005;DHT22;5555;59.622;16.556;2024-01-25T04:43:18;1.40;99.90
11005;DHT22;5555;59.622;16.556;2024-01-25T04:45:43;1.40;99.90
11005;DHT22;5555;59.622;16.556;2024-01-25T04:48:09;1.40;99.90
11005;DHT22;5555;59.622;16.556;2024-01-25T04:50:34;1.40;99.90
11005;DHT22;5555;59.622;16.556;2024-01-25T04:53:03;1.30;99.90
11005;DHT22;5555;59.622;16.556;2024-01-25T04:55:29;1.30;99.90
11005;DHT22;5555;59.622;16.556;2024-01-25T04:57:54;1.20;99.90
11005;DHT22;5555;59.622;16.556;2024-01-25T05:00:22;1.10;99.90
11005;DHT22;5555;59.622;16.556;2024-01-25T05:02:48;1.10;99.90
11005;DHT22;5555;59.622;16.556;2024-01-25T05:05:14;1.10;99.90
11005;DHT22;5555;59.622;16.556;2024-01-25T05:07:40;1.00;99.90
11005;DHT22;5555;59.622;16.556;2024-01-25T05:10:06;1.00;99.90
11005;DHT22;5555;59.622;16.556;2024-01-25T05:12:33;1.10;99.90
11005;DHT22;5555;59.622;16.556;2024-01-25T05:14:58;1.10;99.90
11005;DHT22;5555;59.622;16.556;2024-01-25T05:17:24;1.10;99.90
11005;DHT22;5555;59.622;16.556;2024-01-25T05:19:50;1.20;99.90
11005;DHT22;5555;59.622;16.556;2024-01-25T05:22:16;1.20;99.90
11005;DHT22;5555;59.622;16.556;2024-01-25T05:24:41;1.20;99.90
11005;DHT22;5555;59.622;16.556;2024-01-25T05:27:07;1.20;99.90
11005;DHT22;5555;59.622;16.556;2024-01-25T05:29:33;1.30;99.90
11005;DHT22;5555;59.622;16.556;2024-01-25T05:31:58;1.30;99.90
11005;DHT22;5555;59.622;16.556;2024-01-25T05:34:24;1.30;99.90
11005;DHT22;5555;59.622;16.556;2024-01-25T05:36:50;1.30;99.90
11005;DHT22;5555;59.622;16.556;2024-01-25T05:39:15;1.30;99.90
11005;DHT22;5555;59.622;16.556;2024-01-25T05:41:41;1.30;99.90
11005;DHT22;5555;59.622;16.556;2024-01-25T05:44:07;1.30;99.90
11005;DHT22;5555;59.622;16.556;2024-01-25T05:46:32;1.30;99.90
11005;DHT22;5555;59.622;16.556;2024-01-25T05:48:58;1.30;99.90
11005;DHT22;5555;59.622;16.556;2024-01-25T05:51:24;1.30;99.90
11005;DHT22;5555;59.622;16.556;2024-01-25T05:53:49;1.30;99.90
11005;DHT22;5555;59.622;16.556;2024-01-25T05:56:15;1.30;99.90
11005;DHT22;5555;59.622;16.556;2024-01-25T05:58:40;1.30;99.90
11005;DHT22;5555;59.622;16.556;2024-01-25T06:01:07;1.30;99.90
11005;DHT22;5555;59.622;16.556;2024-01-25T06:03:32;1.30;99.90
11005;DHT22;5555;59.622;16.556;2024-01-25T06:05:58;1.30;99.90
11005;DHT22;5555;59.622;16.556;2024-01-25T06:08:23;1.20;99.90
11005;DHT22;5555;59.622;16.556;2024-01-25T06:10:49;1.20;99.90
11005;DHT22;5555;59.622;16.556;2024-01-25T06:13:15;1.20;99.90
11005;DHT22;5555;59.622;16.556;2024-01-25T06:15:41;1.20;99.90
11005;DHT22;5555;59.622;16.556;2024-01-25T06:18:06;1.20;99.90
11005;DHT22;5555;59.622;16.556;2024-01-25T06:20:32;1.10;99.90
11005;DHT22;5555;59.622;16.556;2024-01-25T06:22:58;1.10;99.90
11005;DHT22;5555;59.622;16.556;2024-01-25T06:25:24;1.10;99.90
11005;DHT22;5555;59.622;16.556;2024-01-25T06:27:49;1.00;99.90
11005;DHT22;5555;59.622;16.556;2024-01-25T06:30:15;0.90;99.90
11005;DHT22;5555;59.622;16.556;2024-01-25T06:32:41;0.80;99.90
11005;DHT22;5555;59.622;16.556;2024-01-25T06:35:07;0.80;99.90
11005;DHT22;5555;59.622;16.556;2024-01-25T06:37:32;0.80;99.90
11005;DHT22;5555;59.622;16.556;2024-01-25T06:39:58;0.80;99.90
11005;DHT22;5555;59.622;16.556;2024-01-25T06:42:24;0.80;99.90
11005;DHT22;5555;59.622;16.556;2024-01-25T06:44:49;0.90;99.90
11005;DHT22;5555;59.622;16.556;2024-01-25T06:47:15;0.90;99.90
11005;DHT22;5555;59.622;16.556;2024-01-25T06:49:41;0.90;99.90
11005;DHT22;5555;59.622;16.556;2024-01-25T06:52:06;0.90;99.90
11005;DHT22;5555;59.622;16.556;2024-01-25T06:54:32;0.90;99.90
11005;DHT22;5555;59.622;16.556;2024-01-25T06:56:58;0.90;99.90
11005;DHT22;5555;59.622;16.556;2024-01-25T06:59:23;0.80;99.90
11005;DHT22;5555;59.622;16.556;2024-01-25T07:01:49;0.80;99.90
11005;DHT22;5555;59.622;16.556;2024-01-25T07:04:14;0.90;99.90
11005;DHT22;5555;59.622;16.556;2024-01-25T07:06:40;0.80;99.90
11005;DHT22;5555;59.622;16.556;2024-01-25T07:09:06;0.90;99.90
11005;DHT22;5555;59.622;16.556;2024-01-25T07:11:32;0.90;99.90
11005;DHT22;5555;59.622;16.556;2024-01-25T07:13:57;0.90;99.90
11005;DHT22;5555;59.622;16.556;2024-01-25T07:16:23;0.90;99.90
11005;DHT22;5555;59.622;16.556;2024-01-25T07:18:50;0.90;99.90
11005;DHT22;5555;59.622;16.556;2024-01-25T07:21:15;0.90;99.90
11005;DHT22;5555;59.622;16.556;2024-01-25T07:23:41;0.90;99.90
11005;DHT22;5555;59.622;16.556;2024-01-25T07:26:07;0.90;99.90
11005;DHT22;5555;59.622;16.556;2024-01-25T07:28:32;0.80;99.90
11005;DHT22;5555;59.622;16.556;2024-01-25T07:30:58;0.80;99.90
11005;DHT22;5555;59.622;16.556;2024-01-25T07:33:23;0.80;99.90
11005;DHT22;5555;59.622;16.556;2024-01-25T07:35:50;0.80;99.90
11005;DHT22;5555;59.622;16.556;2024-01-25T07:38:15;0.80;99.90
11005;DHT22;5555;59.622;16.556;2024-01-25T07:40:41;0.70;99.90
11005;DHT22;5555;59.622;16.556;2024-01-25T07:43:07;0.80;99.90
11005;DHT22;5555;59.622;16.556;2024-01-25T07:45:33;0.70;99.90
11005;DHT22;5555;59.622;16.556;2024-01-25T07:47:59;0.70;99.90
11005;DHT22;5555;59.622;16.556;2024-01-25T07:50:25;0.60;99.90
11005;DHT22;5555;59.622;16.556;2024-01-25T07:52:50;0.60;99.90
11005;DHT22;5555;59.622;16.556;2024-01-25T07:55:16;0.60;99.90
11005;DHT22;5555;59.622;16.556;2024-01-25T07:57:42;0.60;99.90
11005;DHT22;5555;59.622;16.556;2024-01-25T08:00:08;0.60;99.90
11005;DHT22;5555;59.622;16.556;2024-01-25T08:02:35;0.70;99.90
11005;DHT22;5555;59.622;16.556;2024-01-25T08:05:01;0.80;99.90
11005;DHT22;5555;59.622;16.556;2024-01-25T08:07:26;0.80;99.90
11005;DHT22;5555;59.622;16.556;2024-01-25T08:09:52;0.80;99.90
11005;DHT22;5555;59.622;16.556;2024-01-25T08:12:18;0.80;99.90
11005;DHT22;5555;59.622;16.556;2024-01-25T08:14:44;0.90;99.90
11005;DHT22;5555;59.622;16.556;2024-01-25T08:17:10;0.90;99.90
11005;DHT22;5555;59.622;16.556;2024-01-25T08:19:36;0.90;99.90
11005;DHT22;5555;59.622;16.556;2024-01-25T08:22:01;0.90;99.90
11005;DHT22;5555;59.622;16.556;2024-01-25T08:24:27;0.90;99.90
11005;DHT22;5555;59.622;16.556;2024-01-25T08:26:53;0.90;99.90
11005;DHT22;5555;59.622;16.556;2024-01-25T08:29:19;1.00;99.90
11005;DHT22;5555;59.622;16.556;2024-01-25T08:31:44;1.00;99.90
11005;DHT22;5555;59.622;16.556;2024-01-25T08:34:11;1.00;99.90
11005;DHT22;5555;59.622;16.556;2024-01-25T08:36:37;1.00;99.90
11005;DHT22;5555;59.622;16.556;2024-01-25T08:39:02;1.10;99.90
11005;DHT22;5555;59.622;16.556;2024-01-25T08:41:29;1.00;99.90
11005;DHT22;5555;59.622;16.556;2024-01-25T08:43:55;1.10;99.90
11005;DHT22;5555;59.622;16.556;2024-01-25T08:46:21;1.20;99.90
11005;DHT22;5555;59.622;16.556;2024-01-25T08:48:46;1.10;99.90
11005;DHT22;5555;59.622;16.556;2024-01-25T08:51:12;1.10;99.90
11005;DHT22;5555;59.622;16.556;2024-01-25T08:53:37;1.20;99.90
11005;DHT22;5555;59.622;16.556;2024-01-25T08:56:03;1.20;99.90
11005;DHT22;5555;59.622;16.556;2024-01-25T08:58:30;1.20;99.90
11005;DHT22;5555;59.622;16.556;2024-01-25T09:00:55;1.30;99.90
11005;DHT22;5555;59.622;16.556;2024-01-25T09:03:21;1.30;99.90
11005;DHT22;5555;59.622;16.556;2024-01-25T09:05:48;1.40;99.90
11005;DHT22;5555;59.622;16.556;2024-01-25T09:08:14;1.40;99.90
11005;DHT22;5555;59.622;16.556;2024-01-25T09:10:43;1.50;99.90
11005;DHT22;5555;59.622;16.556;2024-01-25T09:13:09;1.50;99.90
11005;DHT22;5555;59.622;16.556;2024-01-25T09:15:34;1.50;99.90
11005;DHT22;5555;59.622;16.556;2024-01-25T09:18:00;1.40;99.90
11005;DHT22;5555;59.622;16.556;2024-01-25T09:20:26;1.40;99.90
11005;DHT22;5555;59.622;16.556;2024-01-25T09:22:52;1.30;99.90
11005;DHT22;5555;59.622;16.556;2024-01-25T09:25:19;1.40;99.90
11005;DHT22;5555;59.622;16.556;2024-01-25T09:27:45;1.40;99.90
11005;DHT22;5555;59.622;16.556;2024-01-25T09:30:11;1.50;99.90
11005;DHT22;5555;59.622;16.556;2024-01-25T09:32:36;1.50;99.90
11005;DHT22;5555;59.622;16.556;2024-01-25T09:35:02;1.40;99.90
11005;DHT22;5555;59.622;16.556;2024-01-25T09:37:28;1.40;99.90
11005;DHT22;5555;59.622;16.556;2024-01-25T09:39:53;1.50;99.90
11005;DHT22;5555;59.622;16.556;2024-01-25T09:42:19;1.50;99.90
11005;DHT22;5555;59.622;16.556;2024-01-25T09:44:45;1.50;99.90
11005;DHT22;5555;59.622;16.556;2024-01-25T09:47:11;1.50;99.90
11005;DHT22;5555;59.622;16.556;2024-01-25T09:49:37;1.60;99.90
11005;DHT22;5555;59.622;16.556;2024-01-25T09:52:03;1.60;99.90
11005;DHT22;5555;59.622;16.556;2024-01-25T09:54:34;1.60;99.90
11005;DHT22;5555;59.622;16.556;2024-01-25T09:57:07;1.60;99.90
11005;DHT22;5555;59.622;16.556;2024-01-25T09:59:34;1.70;99.90
11005;DHT22;5555;59.622;16.556;2024-01-25T10:02:01;1.70;99.90
11005;DHT22;5555;59.622;16.556;2024-01-25T10:04:27;1.70;99.90
11005;DHT22;5555;59.622;16.556;2024-01-25T10:06:56;1.80;99.90
11005;DHT22;5555;59.622;16.556;2024-01-25T10:09:22;1.70;99.90
11005;DHT22;5555;59.622;16.556;2024-01-25T10:11:48;1.70;99.90
11005;DHT22;5555;59.622;16.556;2024-01-25T10:14:14;1.70;99.90
11005;DHT22;5555;59.622;16.556;2024-01-25T10:16:40;1.70;99.90
11005;DHT22;5555;59.622;16.556;2024-01-25T10:19:09;1.70;99.90
11005;DHT22;5555;59.622;16.556;2024-01-25T10:21:36;1.70;99.90
11005;DHT22;5555;59.622;16.556;2024-01-25T10:24:01;1.80;99.90
11005;DHT22;5555;59.622;16.556;2024-01-25T10:26:28;1.80;99.90
11005;DHT22;5555;59.622;16.556;2024-01-25T10:28:54;1.80;99.90
11005;DHT22;5555;59.622;16.556;2024-01-25T10:31:23;2.00;99.90
11005;DHT22;5555;59.622;16.556;2024-01-25T10:33:52;2.00;99.90
11005;DHT22;5555;59.622;16.556;2024-01-25T10:36:22;2.00;99.90
11005;DHT22;5555;59.622;16.556;2024-01-25T10:38:52;2.10;99.90
11005;DHT22;5555;59.622;16.556;2024-01-25T10:41:19;2.10;99.90
11005;DHT22;5555;59.622;16.556;2024-01-25T10:43:45;2.00;99.90
11005;DHT22;5555;59.622;16.556;2024-01-25T10:46:11;2.00;99.90
11005;DHT22;5555;59.622;16.556;2024-01-25T10:48:37;2.10;99.90
11005;DHT22;5555;59.622;16.556;2024-01-25T10:51:04;2.10;99.90
11005;DHT22;5555;59.622;16.556;2024-01-25T10:53:31;2.00;99.90
11005;DHT22;5555;59.622;16.556;2024-01-25T10:55:58;2.00;99.90
11005;DHT22;5555;59.622;16.556;2024-01-25T10:58:24;2.00;99.90
11005;DHT22;5555;59.622;16.556;2024-01-25T11:00:55;2.00;99.90
11005;DHT22;5555;59.622;16.556;2024-01-25T11:03:27;2.10;99.90
11005;DHT22;5555;59.622;16.556;2024-01-25T11:05:55;2.10;99.90
11005;DHT22;5555;59.622;16.556;2024-01-25T11:08:21;2.00;99.90
11005;DHT22;5555;59.622;16.556;2024-01-25T11:10:53;2.00;99.90
11005;DHT22;5555;59.622;16.556;2024-01-25T11:13:28;2.30;99.90
11005;DHT22;5555;59.622;16.556;2024-01-25T11:15:55;2.30;99.90
11005;DHT22;5555;59.622;16.556;2024-01-25T11:18:24;2.40;99.90
11005;DHT22;5555;59.622;16.556;2024-01-25T11:20:51;2.50;99.90
11005;DHT22;5555;59.622;16.556;2024-01-25T11:23:16;2.20;99.90
11005;DHT22;5555;59.622;16.556;2024-01-25T11:25:45;2.10;99.90
11005;DHT22;5555;59.622;16.556;2024-01-25T11:28:14;2.10;99.90
11005;DHT22;5555;59.622;16.556;2024-01-25T11:30:41;2.20;99.90
11005;DHT22;5555;59.622;16.556;2024-01-25T11:33:08;2.00;99.90
11005;DHT22;5555;59.622;16.556;2024-01-25T11:35:34;2.00;99.90
11005;DHT22;5555;59.622;16.556;2024-01-25T11:38:00;1.90;99.90
11005;DHT22;5555;59.622;16.556;2024-01-25T11:40:26;1.80;99.90
11005;DHT22;5555;59.622;16.556;2024-01-25T11:42:53;1.90;99.90
11005;DHT22;5555;59.622;16.556;2024-01-25T11:45:18;1.80;99.90
11005;DHT22;5555;59.622;16.556;2024-01-25T11:47:44;1.80;99.90
11005;DHT22;5555;59.622;16.556;2024-01-25T11:50:12;1.80;99.90
11005;DHT22;5555;59.622;16.556;2024-01-25T11:52:38;1.90;99.90
11005;DHT22;5555;59.622;16.556;2024-01-25T11:55:05;2.10;99.90
11005;DHT22;5555;59.622;16.556;2024-01-25T11:57:36;2.10;99.90
11005;DHT22;5555;59.622;16.556;2024-01-25T12:00:03;2.10;99.90
11005;DHT22;5555;59.622;16.556;2024-01-25T12:02:30;2.20;99.90
11005;DHT22;5555;59.622;16.556;2024-01-25T12:04:57;2.10;99.90
11005;DHT22;5555;59.622;16.556;2024-01-25T12:07:23;2.20;99.90
11005;DHT22;5555;59.622;16.556;2024-01-25T12:10:04;2.30;99.90
11005;DHT22;5555;59.622;16.556;2024-01-25T12:12:31;2.20;99.90
11005;DHT22;5555;59.622;16.556;2024-01-25T12:15:01;2.00;99.90
11005;DHT22;5555;59.622;16.556;2024-01-25T12:17:29;2.00;99.90
11005;DHT22;5555;59.622;16.556;2024-01-25T12:19:58;2.00;99.90
11005;DHT22;5555;59.622;16.556;2024-01-25T12:22:27;2.10;99.90
11005;DHT22;5555;59.622;16.556;2024-01-25T12:24:54;2.20;99.90
11005;DHT22;5555;59.622;16.556;2024-01-25T12:27:21;2.10;99.90
11005;DHT22;5555;59.622;16.556;2024-01-25T12:29:48;2.00;99.90
11005;DHT22;5555;59.622;16.556;2024-01-25T12:32:13;2.00;99.90
11005;DHT22;5555;59.622;16.556;2024-01-25T12:34:39;1.90;99.90
11005;DHT22;5555;59.622;16.556;2024-01-25T12:37:07;1.90;99.90
11005;DHT22;5555;59.622;16.556;2024-01-25T12:39:32;1.90;99.90
11005;DHT22;5555;59.622;16.556;2024-01-25T12:41:58;1.80;99.90
11005;DHT22;5555;59.622;16.556;2024-01-25T12:44:23;1.90;99.90
11005;DHT22;5555;59.622;16.556;2024-01-25T12:46:49;1.80;99.90
11005;DHT22;5555;59.622;16.556;2024-01-25T12:49:15;1.80;99.90
11005;DHT22;5555;59.622;16.556;2024-01-25T12:51:41;1.90;99.90
11005;DHT22;5555;59.622;16.556;2024-01-25T12:54:07;1.90;99.90
11005;DHT22;5555;59.622;16.556;2024-01-25T12:56:33;1.80;99.90
11005;DHT22;5555;59.622;16.556;2024-01-25T12:58:58;1.80;99.90
11005;DHT22;5555;59.622;16.556;2024-01-25T13:01:24;1.80;99.90
11005;DHT22;5555;59.622;16.556;2024-01-25T13:03:49;1.80;99.90
11005;DHT22;5555;59.622;16.556;2024-01-25T13:06:15;1.80;99.90
11005;DHT22;5555;59.622;16.556;2024-01-25T13:08:41;1.80;99.90
11005;DHT22;5555;59.622;16.556;2024-01-25T13:11:07;1.60;99.90
11005;DHT22;5555;59.622;16.556;2024-01-25T13:13:32;1.60;99.90
11005;DHT22;5555;59.622;16.556;2024-01-25T13:15:58;1.70;99.90
11005;DHT22;5555;59.622;16.556;2024-01-25T13:18:24;1.70;99.90
11005;DHT22;5555;59.622;16.556;2024-01-25T13:20:49;1.70;99.90
11005;DHT22;5555;59.622;16.556;2024-01-25T13:23:15;1.70;99.90
11005;DHT22;5555;59.622;16.556;2024-01-25T13:25:40;1.70;99.90
11005;DHT22;5555;59.622;16.556;2024-01-25T13:28:06;1.70;99.90
11005;DHT22;5555;59.622;16.556;2024-01-25T13:30:32;1.70;99.90
11005;DHT22;5555;59.622;16.556;2024-01-25T13:32:57;1.60;99.90
11005;DHT22;5555;59.622;16.556;2024-01-25T13:35:23;1.70;99.90
11005;DHT22;5555;59.622;16.556;2024-01-25T13:37:48;1.70;99.90
11005;DHT22;5555;59.622;16.556;2024-01-25T13:40:14;1.70;99.90
11005;DHT22;5555;59.622;16.556;2024-01-25T13:42:40;1.70;99.90
11005;DHT22;5555;59.622;16.556;2024-01-25T13:45:06;1.70;99.90
11005;DHT22;5555;59.622;16.556;2024-01-25T13:47:32;1.60;99.90
11005;DHT22;5555;59.622;16.556;2024-01-25T13:49:58;1.50;99.90
11005;DHT22;5555;59.622;16.556;2024-01-25T13:52:23;1.50;99.90
11005;DHT22;5555;59.622;16.556;2024-01-25T13:54:49;1.60;99.90
11005;DHT22;5555;59.622;16.556;2024-01-25T13:57:15;1.60;99.90
11005;DHT22;5555;59.622;16.556;2024-01-25T13:59:41;1.60;99.90
11005;DHT22;5555;59.622;16.556;2024-01-25T14:02:06;1.50;99.90
11005;DHT22;5555;59.622;16.556;2024-01-25T14:04:32;1.50;99.90
11005;DHT22;5555;59.622;16.556;2024-01-25T14:06:57;1.50;99.90
11005;DHT22;5555;59.622;16.556;2024-01-25T14:09:23;1.50;99.90
11005;DHT22;5555;59.622;16.556;2024-01-25T14:11:48;1.50;99.90
11005;DHT22;5555;59.622;16.556;2024-01-25T14:14:14;1.50;99.90
11005;DHT22;5555;59.622;16.556;2024-01-25T14:16:40;1.50;99.90
11005;DHT22;5555;59.622;16.556;2024-01-25T14:19:06;1.50;99.90
11005;DHT22;5555;59.622;16.556;2024-01-25T14:21:32;1.50;99.90
11005;DHT22;5555;59.622;16.556;2024-01-25T14:23:57;1.50;99.90
11005;DHT22;5555;59.622;16.556;2024-01-25T14:26:23;1.50;99.90
11005;DHT22;5555;59.622;16.556;2024-01-25T14:28:49;1.50;99.90
11005;DHT22;5555;59.622;16.556;2024-01-25T14:31:14;1.40;99.90
11005;DHT22;5555;59.622;16.556;2024-01-25T14:33:41;1.40;99.90
11005;DHT22;5555;59.622;16.556;2024-01-25T14:36:06;1.40;99.90
11005;DHT22;5555;59.622;16.556;2024-01-25T14:38:32;1.30;99.90
11005;DHT22;5555;59.622;16.556;2024-01-25T14:40:59;1.30;99.90
11005;DHT22;5555;59.622;16.556;2024-01-25T14:43:25;1.40;99.90
11005;DHT22;5555;59.622;16.556;2024-01-25T14:45:51;1.30;99.90
11005;DHT22;5555;59.622;16.556;2024-01-25T14:48:17;1.30;99.90
11005;DHT22;5555;59.622;16.556;2024-01-25T14:50:43;1.30;99.90
11005;DHT22;5555;59.622;16.556;2024-01-25T14:53:09;1.20;99.90
11005;DHT22;5555;59.622;16.556;2024-01-25T14:55:34;1.20;99.90
11005;DHT22;5555;59.622;16.556;2024-01-25T14:58:00;1.20;99.90
11005;DHT22;5555;59.622;16.556;2024-01-25T15:00:25;1.20;99.90
11005;DHT22;5555;59.622;16.556;2024-01-25T15:02:51;1.20;99.90
11005;DHT22;5555;59.622;16.556;2024-01-25T15:05:16;1.20;99.90
11005;DHT22;5555;59.622;16.556;2024-01-25T15:07:42;1.10;99.90
11005;DHT22;5555;59.622;16.556;2024-01-25T15:10:08;1.20;99.90
11005;DHT22;5555;59.622;16.556;2024-01-25T15:12:34;1.20;99.90
11005;DHT22;5555;59.622;16.556;2024-01-25T15:15:00;1.20;99.90
11005;DHT22;5555;59.622;16.556;2024-01-25T15:17:25;1.10;99.90
11005;DHT22;5555;59.622;16.556;2024-01-25T15:19:51;1.10;99.90
11005;DHT22;5555;59.622;16.556;2024-01-25T15:22:17;1.10;99.90
11005;DHT22;5555;59.622;16.556;2024-01-25T15:24:42;1.10;99.90
11005;DHT22;5555;59.622;16.556;2024-01-25T15:27:08;1.10;99.90
11005;DHT22;5555;59.622;16.556;2024-01-25T15:29:39;1.10;99.90
11005;DHT22;5555;59.622;16.556;2024-01-25T15:32:05;1.10;99.90
11005;DHT22;5555;59.622;16.556;2024-01-25T15:34:31;1.10;99.90
11005;DHT22;5555;59.622;16.556;2024-01-25T15:36:56;1.10;99.90